PWSweather.com
Personal Weather Stations
Station Observations
MIKESPOST
YorkGB

YorkGB

Lat: 53.9577018, Lon: -1.0822855

Elevation: 0

Station Type: WH1081

High Low Average
Temperature 54.9°F12.7°F 41.0°F5.0°F 44.7°F7.1°F
Dew Point 41.8°F5.4°F 36.5°F2.5°F 38.5°F3.6°F
Winds 16.5 mph SE26.6 mph SE 0.7 mph 1.1 mph 6.8 mph 10.9 mph
Wind Gusts 34.1 mph54.9 mph 3.9 mph6.3 mph 14.0 mph22.5 mph
Humidity 90% 57% 79%
Pressure 30.11 in1019.60 in 29.74 in1007.10 in -
Precipitation 0.00 in0.00 in - -
Hour Temp Dew Point Humidity Winds Wind Gusts Pressure Precip Precip Rate Daily Precip Total
12:00 AM 43.0°F6.1°C 37.2°F2.9°C 80% 9.3 mph W15.0 kmh W 15.1 mph24.3 kmh 29.76 in1007.8 mb 0.00 in0.0 mm 0.00 in/hr0.0 mm/hr 0.00 in0.0 mm
12:20 AM 42.6°F5.9°C 37.2°F2.9°C 81% 10.9 mph NW17.5 kmh NW 15.1 mph24.3 kmh 29.76 in1007.8 mb 0.00 in0.0 mm 0.00 in/hr0.0 mm/hr 0.00 in0.0 mm
12:40 AM 42.6°F5.9°C 37.2°F2.9°C 81% 12.9 mph NW20.8 kmh NW 24.6 mph39.6 kmh 29.75 in1007.5 mb 0.00 in0.0 mm 0.00 in/hr0.0 mm/hr 0.00 in0.0 mm
01:00 AM 43.0°F6.1°C 37.2°F2.9°C 80% 9.9 mph WNW15.9 kmh WNW 19.0 mph30.6 kmh 29.75 in1007.5 mb 0.00 in0.0 mm 0.00 in/hr0.0 mm/hr 0.00 in0.0 mm
01:20 AM 43.3°F6.3°C 37.6°F3.1°C 80% 9.0 mph ENE14.5 kmh ENE 15.1 mph24.3 kmh 29.76 in1007.8 mb 0.00 in0.0 mm 0.00 in/hr0.0 mm/hr 0.00 in0.0 mm
01:40 AM 44.1°F6.7°C 38.0°F3.3°C 79% 15.7 mph SE25.3 kmh SE 32.4 mph52.1 kmh 29.75 in1007.5 mb 0.00 in0.0 mm 0.00 in/hr0.0 mm/hr 0.00 in0.0 mm
02:00 AM 44.1°F6.7°C 38.0°F3.3°C 79% 16.5 mph SE26.6 kmh SE 34.1 mph54.9 kmh 29.75 in1007.5 mb 0.00 in0.0 mm 0.00 in/hr0.0 mm/hr 0.00 in0.0 mm
02:20 AM 43.7°F6.5°C 37.6°F3.1°C 79% 11.7 mph NW18.8 kmh NW 28.5 mph45.9 kmh 29.76 in1007.8 mb 0.00 in0.0 mm 0.00 in/hr0.0 mm/hr 0.00 in0.0 mm
02:40 AM 44.1°F6.7°C 38.3°F3.5°C 80% 11.5 mph NW18.5 kmh NW 19.0 mph30.6 kmh 29.75 in1007.5 mb 0.00 in0.0 mm 0.00 in/hr0.0 mm/hr 0.00 in0.0 mm
03:00 AM 44.1°F6.7°C 38.0°F3.3°C 79% 12.4 mph WSW20.0 kmh WSW 19.0 mph30.6 kmh 29.76 in1007.8 mb 0.00 in0.0 mm 0.00 in/hr0.0 mm/hr 0.00 in0.0 mm
03:20 AM 43.7°F6.5°C 37.9°F3.3°C 80% 13.2 mph E21.2 kmh E 22.9 mph36.9 kmh 29.75 in1007.5 mb 0.00 in0.0 mm 0.00 in/hr0.0 mm/hr 0.00 in0.0 mm
03:40 AM 43.7°F6.5°C 37.9°F3.3°C 80% 11.3 mph NE18.2 kmh NE 22.9 mph36.9 kmh 29.74 in1007.1 mb 0.00 in0.0 mm 0.00 in/hr0.0 mm/hr 0.00 in0.0 mm
04:00 AM 43.9°F6.6°C 37.8°F3.2°C 79% 11.3 mph NE18.2 kmh NE 19.0 mph30.6 kmh 29.75 in1007.5 mb 0.00 in0.0 mm 0.00 in/hr0.0 mm/hr 0.00 in0.0 mm
04:20 AM 43.9°F6.6°C 37.5°F3.1°C 78% 13.3 mph SSW21.4 kmh SSW 30.2 mph48.6 kmh 29.76 in1007.8 mb 0.00 in0.0 mm 0.00 in/hr0.0 mm/hr 0.00 in0.0 mm
04:40 AM 43.3°F6.3°C 37.6°F3.1°C 80% 10.8 mph SE17.4 kmh SE 15.1 mph24.3 kmh 29.75 in1007.5 mb 0.00 in0.0 mm 0.00 in/hr0.0 mm/hr 0.00 in0.0 mm
05:00 AM 43.7°F6.5°C 37.6°F3.1°C 79% 13.9 mph SW22.4 kmh SW 26.8 mph43.1 kmh 29.76 in1007.8 mb 0.00 in0.0 mm 0.00 in/hr0.0 mm/hr 0.00 in0.0 mm
05:20 AM 43.9°F6.6°C 37.8°F3.2°C 79% 13.3 mph WNW21.4 kmh WNW 28.5 mph45.9 kmh 29.76 in1007.8 mb 0.00 in0.0 mm 0.00 in/hr0.0 mm/hr 0.00 in0.0 mm
05:40 AM 43.9°F6.6°C 37.8°F3.2°C 79% 11.4 mph E18.3 kmh E 32.4 mph52.1 kmh 29.77 in1008.1 mb 0.00 in0.0 mm 0.00 in/hr0.0 mm/hr 0.00 in0.0 mm
06:00 AM 43.5°F6.4°C 37.1°F2.8°C 78% 9.6 mph NW15.4 kmh NW 17.3 mph27.8 kmh 29.77 in1008.1 mb 0.00 in0.0 mm 0.00 in/hr0.0 mm/hr 0.00 in0.0 mm
06:20 AM 43.7°F6.5°C 37.0°F2.8°C 77% 11.5 mph NW18.5 kmh NW 28.5 mph45.9 kmh 29.78 in1008.5 mb 0.00 in0.0 mm 0.00 in/hr0.0 mm/hr 0.00 in0.0 mm
06:40 AM 43.7°F6.5°C 37.0°F2.8°C 77% 8.4 mph SE13.5 kmh SE 15.1 mph24.3 kmh 29.79 in1008.8 mb 0.00 in0.0 mm 0.00 in/hr0.0 mm/hr 0.00 in0.0 mm
07:00 AM 43.9°F6.6°C 36.8°F2.7°C 76% 10.5 mph NE16.9 kmh NE 17.3 mph27.8 kmh 29.80 in1009.1 mb 0.00 in0.0 mm 0.00 in/hr0.0 mm/hr 0.00 in0.0 mm
07:20 AM 43.5°F6.4°C 36.5°F2.5°C 76% 7.8 mph ENE12.6 kmh ENE 15.1 mph24.3 kmh 29.82 in1009.8 mb 0.00 in0.0 mm 0.00 in/hr0.0 mm/hr 0.00 in0.0 mm
07:40 AM 44.2°F6.8°C 37.2°F2.9°C 76% 9.2 mph WSW14.8 kmh WSW 19.0 mph30.6 kmh 29.83 in1010.2 mb 0.00 in0.0 mm 0.00 in/hr0.0 mm/hr 0.00 in0.0 mm
08:00 AM 44.1°F6.7°C 37.0°F2.8°C 76% 7.8 mph WSW12.6 kmh WSW 15.1 mph24.3 kmh 29.84 in1010.5 mb 0.00 in0.0 mm 0.00 in/hr0.0 mm/hr 0.00 in0.0 mm
08:20 AM 43.9°F6.6°C 37.5°F3.1°C 78% 9.8 mph NW15.8 kmh NW 22.9 mph36.9 kmh 29.86 in1011.2 mb 0.00 in0.0 mm 0.00 in/hr0.0 mm/hr 0.00 in0.0 mm
08:40 AM 43.5°F6.4°C 37.1°F2.8°C 78% 8.4 mph N13.5 kmh N 17.3 mph27.8 kmh 29.86 in1011.2 mb 0.00 in0.0 mm 0.00 in/hr0.0 mm/hr 0.00 in0.0 mm
09:00 AM 43.3°F6.3°C 37.6°F3.1°C 80% 7.1 mph WSW11.4 kmh WSW 17.3 mph27.8 kmh 29.87 in1011.5 mb 0.00 in0.0 mm 0.00 in/hr0.0 mm/hr 0.00 in0.0 mm
09:20 AM 43.7°F6.5°C 37.9°F3.3°C 80% 7.7 mph SW12.4 kmh SW 20.7 mph33.3 kmh 29.88 in1011.9 mb 0.00 in0.0 mm 0.00 in/hr0.0 mm/hr 0.00 in0.0 mm
09:40 AM 44.4°F6.9°C 39.0°F3.9°C 81% 9.6 mph E15.4 kmh E 26.8 mph43.1 kmh 29.87 in1011.5 mb 0.00 in0.0 mm 0.00 in/hr0.0 mm/hr 0.00 in0.0 mm
10:00 AM 45.9°F7.7°C 39.4°F4.1°C 78% 6.4 mph ESE10.3 kmh ESE 17.3 mph27.8 kmh 29.88 in1011.9 mb 0.00 in0.0 mm 0.00 in/hr0.0 mm/hr 0.00 in0.0 mm
10:20 AM 50.9°F10.5°C 41.8°F5.4°C 71% 7.7 mph SE12.4 kmh SE 15.1 mph24.3 kmh 29.90 in1012.5 mb 0.00 in0.0 mm 0.00 in/hr0.0 mm/hr 0.00 in0.0 mm
10:40 AM 52.9°F11.6°C 40.2°F4.6°C 62% 7.4 mph W11.9 kmh W 24.6 mph39.6 kmh 29.91 in1012.9 mb 0.00 in0.0 mm 0.00 in/hr0.0 mm/hr 0.00 in0.0 mm
11:00 AM 53.8°F12.1°C 40.2°F4.6°C 60% 6.9 mph ESE11.1 kmh ESE 17.3 mph27.8 kmh 29.91 in1012.9 mb 0.00 in0.0 mm 0.00 in/hr0.0 mm/hr 0.00 in0.0 mm
11:20 AM 54.0°F12.2°C 39.5°F4.2°C 58% 7.5 mph E12.1 kmh E 11.2 mph18.0 kmh 29.92 in1013.2 mb 0.00 in0.0 mm 0.00 in/hr0.0 mm/hr 0.00 in0.0 mm
11:40 AM 54.9°F12.7°C 39.9°F4.4°C 57% 8.9 mph NE14.3 kmh NE 13.4 mph21.6 kmh 29.93 in1013.5 mb 0.00 in0.0 mm 0.00 in/hr0.0 mm/hr 0.00 in0.0 mm
12:00 PM 54.3°F12.4°C 40.3°F4.6°C 59% 7.6 mph NE12.2 kmh NE 13.4 mph21.6 kmh 29.93 in1013.5 mb 0.00 in0.0 mm 0.00 in/hr0.0 mm/hr 0.00 in0.0 mm
12:20 PM 50.5°F10.3°C 37.6°F3.1°C 61% 7.5 mph W12.1 kmh W 17.3 mph27.8 kmh 29.95 in1014.2 mb 0.00 in0.0 mm 0.00 in/hr0.0 mm/hr 0.00 in0.0 mm
12:40 PM 48.2°F9.0°C 38.1°F3.4°C 68% 6.8 mph N10.9 kmh N 9.5 mph15.3 kmh 29.96 in1014.6 mb 0.00 in0.0 mm 0.00 in/hr0.0 mm/hr 0.00 in0.0 mm
01:00 PM 48.6°F9.2°C 38.9°F3.8°C 69% 5.8 mph NW9.3 kmh NW 9.5 mph15.3 kmh 29.96 in1014.6 mb 0.00 in0.0 mm 0.00 in/hr0.0 mm/hr 0.00 in0.0 mm
01:20 PM 48.2°F9.0°C 38.9°F3.8°C 70% 4.8 mph S7.7 kmh S 9.5 mph15.3 kmh 29.98 in1015.2 mb 0.00 in0.0 mm 0.00 in/hr0.0 mm/hr 0.00 in0.0 mm
01:40 PM 47.1°F8.4°C 38.2°F3.4°C 71% 4.6 mph SW7.4 kmh SW 9.5 mph15.3 kmh 29.98 in1015.2 mb 0.00 in0.0 mm 0.00 in/hr0.0 mm/hr 0.00 in0.0 mm
02:00 PM 46.2°F7.9°C 38.1°F3.4°C 73% 4.8 mph N7.7 kmh N 7.8 mph12.6 kmh 29.98 in1015.2 mb 0.00 in0.0 mm 0.00 in/hr0.0 mm/hr 0.00 in0.0 mm
02:20 PM 45.9°F7.7°C 38.1°F3.4°C 74% 3.6 mph WSW5.8 kmh WSW 5.6 mph9.0 kmh 29.99 in1015.6 mb 0.00 in0.0 mm 0.00 in/hr0.0 mm/hr 0.00 in0.0 mm
02:40 PM 46.0°F7.8°C 38.6°F3.7°C 75% 2.7 mph SW4.3 kmh SW 3.9 mph6.3 kmh 30.00 in1015.9 mb 0.00 in0.0 mm 0.00 in/hr0.0 mm/hr 0.00 in0.0 mm
03:00 PM 45.0°F7.2°C 37.5°F3.1°C 75% 3.2 mph S5.1 kmh S 5.6 mph9.0 kmh 30.01 in1016.3 mb 0.00 in0.0 mm 0.00 in/hr0.0 mm/hr 0.00 in0.0 mm
03:20 PM 44.1°F6.7°C 37.6°F3.1°C 78% 3.5 mph SW5.6 kmh SW 11.2 mph18.0 kmh 30.01 in1016.3 mb 0.00 in0.0 mm 0.00 in/hr0.0 mm/hr 0.00 in0.0 mm
03:40 PM 43.5°F6.4°C 37.4°F3.0°C 79% 2.8 mph W4.5 kmh W 5.6 mph9.0 kmh 30.02 in1016.6 mb 0.00 in0.0 mm 0.00 in/hr0.0 mm/hr 0.00 in0.0 mm
04:00 PM 43.0°F6.1°C 37.6°F3.1°C 81% 2.7 mph ESE4.3 kmh ESE 5.6 mph9.0 kmh 30.02 in1016.6 mb 0.00 in0.0 mm 0.00 in/hr0.0 mm/hr 0.00 in0.0 mm
04:20 PM 42.6°F5.9°C 37.5°F3.1°C 82% 2.7 mph SW4.3 kmh SW 3.9 mph6.3 kmh 30.03 in1016.9 mb 0.00 in0.0 mm 0.00 in/hr0.0 mm/hr 0.00 in0.0 mm
04:40 PM 42.8°F6.0°C 38.0°F3.3°C 83% 4.0 mph WSW6.4 kmh WSW 7.8 mph12.6 kmh 30.04 in1017.3 mb 0.00 in0.0 mm 0.00 in/hr0.0 mm/hr 0.00 in0.0 mm
05:00 PM 43.3°F6.3°C 38.8°F3.8°C 84% 4.4 mph WSW7.1 kmh WSW 9.5 mph15.3 kmh 30.04 in1017.3 mb 0.00 in0.0 mm 0.00 in/hr0.0 mm/hr 0.00 in0.0 mm
05:20 PM 43.9°F6.6°C 39.4°F4.1°C 84% 4.7 mph SSW7.6 kmh SSW 9.5 mph15.3 kmh 30.06 in1017.9 mb 0.00 in0.0 mm 0.00 in/hr0.0 mm/hr 0.00 in0.0 mm
05:40 PM 43.2°F6.2°C 38.7°F3.7°C 84% 2.8 mph NW4.5 kmh NW 7.8 mph12.6 kmh 30.07 in1018.3 mb 0.00 in0.0 mm 0.00 in/hr0.0 mm/hr 0.00 in0.0 mm
06:00 PM 42.6°F5.9°C 38.4°F3.6°C 85% 3.9 mph S6.3 kmh S 5.6 mph9.0 kmh 30.07 in1018.3 mb 0.00 in0.0 mm 0.00 in/hr0.0 mm/hr 0.00 in0.0 mm
06:20 PM 42.3°F5.7°C 38.4°F3.6°C 86% 2.2 mph S3.5 kmh S 5.6 mph9.0 kmh 30.08 in1018.6 mb 0.00 in0.0 mm 0.00 in/hr0.0 mm/hr 0.00 in0.0 mm
06:40 PM 42.1°F5.6°C 38.2°F3.4°C 86% 0.7 mph WSW1.1 kmh WSW 3.9 mph6.3 kmh 30.08 in1018.6 mb 0.00 in0.0 mm 0.00 in/hr0.0 mm/hr 0.00 in0.0 mm
07:00 PM 41.4°F5.2°C 37.8°F3.2°C 87% 2.3 mph WNW3.7 kmh WNW 3.9 mph6.3 kmh 30.09 in1019.0 mb 0.00 in0.0 mm 0.00 in/hr0.0 mm/hr 0.00 in0.0 mm
07:20 PM 41.0°F5.0°C 37.4°F3.0°C 87% 1.0 mph NE1.6 kmh NE 3.9 mph6.3 kmh 30.10 in1019.3 mb 0.00 in0.0 mm 0.00 in/hr0.0 mm/hr 0.00 in0.0 mm
07:40 PM 41.4°F5.2°C 38.4°F3.6°C 89% 2.5 mph E4.0 kmh E 7.8 mph12.6 kmh 30.10 in1019.3 mb 0.00 in0.0 mm 0.00 in/hr0.0 mm/hr 0.00 in0.0 mm
08:00 PM 41.9°F5.5°C 39.2°F4.0°C 90% 1.8 mph S2.9 kmh S 9.5 mph15.3 kmh 30.10 in1019.3 mb 0.00 in0.0 mm 0.00 in/hr0.0 mm/hr 0.00 in0.0 mm
08:20 PM 41.9°F5.5°C 38.9°F3.8°C 89% 2.5 mph S4.0 kmh S 5.6 mph9.0 kmh 30.10 in1019.3 mb 0.00 in0.0 mm 0.00 in/hr0.0 mm/hr 0.00 in0.0 mm
08:40 PM 41.5°F5.3°C 38.8°F3.8°C 90% 2.7 mph SW4.3 kmh SW 3.9 mph6.3 kmh 30.11 in1019.6 mb 0.00 in0.0 mm 0.00 in/hr0.0 mm/hr 0.00 in0.0 mm
09:00 PM 42.3°F5.7°C 39.5°F4.2°C 90% 1.9 mph E3.1 kmh E 3.9 mph6.3 kmh 30.11 in1019.6 mb 0.00 in0.0 mm 0.00 in/hr0.0 mm/hr 0.00 in0.0 mm
09:20 PM 42.6°F5.9°C 39.9°F4.4°C 90% 3.8 mph NW6.1 kmh NW 5.6 mph9.0 kmh 30.11 in1019.6 mb 0.00 in0.0 mm 0.00 in/hr0.0 mm/hr 0.00 in0.0 mm
09:40 PM 43.0°F6.1°C 40.3°F4.6°C 90% 2.1 mph W3.4 kmh W 5.6 mph9.0 kmh 30.11 in1019.6 mb 0.00 in0.0 mm 0.00 in/hr0.0 mm/hr 0.00 in0.0 mm
10:00 PM 43.9°F6.6°C 41.1°F5.1°C 90% 2.1 mph N3.4 kmh N 5.6 mph9.0 kmh 30.11 in1019.6 mb 0.00 in0.0 mm 0.00 in/hr0.0 mm/hr 0.00 in0.0 mm
10:20 PM 44.6°F7.0°C 41.6°F5.3°C 89% 2.4 mph SSE3.9 kmh SSE 5.6 mph9.0 kmh 30.11 in1019.6 mb 0.00 in0.0 mm 0.00 in/hr0.0 mm/hr 0.00 in0.0 mm
10:40 PM 44.4°F6.9°C 41.1°F5.1°C 88% 1.4 mph WNW2.3 kmh WNW 3.9 mph6.3 kmh 30.10 in1019.3 mb 0.00 in0.0 mm 0.00 in/hr0.0 mm/hr 0.00 in0.0 mm
11:00 PM 45.1°F7.3°C 41.8°F5.4°C 88% 3.8 mph SSW6.1 kmh SSW 7.8 mph12.6 kmh 30.11 in1019.6 mb 0.00 in0.0 mm 0.00 in/hr0.0 mm/hr 0.00 in0.0 mm
11:20 PM 45.1°F7.3°C 41.5°F5.3°C 87% 2.9 mph NE4.7 kmh NE 7.8 mph12.6 kmh 30.11 in1019.6 mb 0.00 in0.0 mm 0.00 in/hr0.0 mm/hr 0.00 in0.0 mm
11:40 PM 45.1°F7.3°C 41.2°F5.1°C 86% 1.7 mph SE2.7 kmh SE 5.6 mph9.0 kmh 30.11 in1019.6 mb 0.00 in0.0 mm 0.00 in/hr0.0 mm/hr 0.00 in0.0 mm